SA3 weather

CLOSED Port-Cartier Airport
Quebec, Canada

Public forecast

Using degrees Celsius for public forecast. Weather courtesy of forecast.io.

METAR (pilot weather report)

Closest report is Sept-Îles Airport, 25.9 nm (48.1 km) ENE. Retrieved 2019/05/21 12:00 UTC (51 minutes ago):

CYZV 211200Z 08015G23KT 3SM -RA BR FEW004 OVC006 02/01 A2975 RMK SF2SF6 SLP080

TAF (pilot weather forecast)

Closest forecast is Sept-Îles Airport, 25.9 nm (48.1 km) ENE. Retrieved 2019/05/21 12:42 UTC (9 minutes ago):

TAF CYZV 211138Z 2112/2212 08012G22KT 3SM -RA BR BKN006 OVC015 TEMPO 2112/2114 P6SM -RA SCT006 BKN015 OVC040 FM211400 08012G22KT 6SM -RA BR FEW008 OVC015 TEMPO 2114/2118 P6SM NSW BKN025 OVC050 FM211800 12008KT P6SM -RA FEW008 BKN020 OVC060 TEMPO 2118/2123 P6SM NSW BKN025 OVC060 BECMG 2118/2120 VRB03KT FM212300 01008KT P6SM BKN030 BKN100 RMK NXT FCST BY 211800Z